Time;durP1;ratioP1;P1;durP2;ratioP2;P2;SDS_P1;SDS_P2;PMS_P1;PMS_P2;Temp;Humidity;BMP_temperature;BMP_pressure;BME280_temperature;BME280_humidity;BME280_pressure;Samples;Min_cycle;Max_cycle;Signal;HPM_P1;HPM_P2
2022/09/28 00:01:17;;;;;;;3.53;1.70;;;7.00;99.90;;;;;;5046125;28;20037;-79
2022/09/28 00:03:46;;;;;;;3.67;1.70;;;6.90;99.90;;;;;;5040202;28;20084;-78
2022/09/28 00:06:17;;;;;;;4.20;2.10;;;6.90;99.90;;;;;;5013631;28;20521;-79
2022/09/28 00:08:44;;;;;;;3.28;1.83;;;7.40;99.90;;;;;;5029947;28;20441;-78
2022/09/28 00:11:14;;;;;;;3.10;1.70;;;6.80;99.90;;;;;;5029899;28;20037;-79
2022/09/28 00:13:47;;;;;;;6.55;1.85;;;6.80;99.90;;;;;;5033953;28;20395;-79
2022/09/28 00:16:19;;;;;;;4.07;1.95;;;7.60;99.90;;;;;;5029553;28;20081;-79
2022/09/28 00:18:46;;;;;;;7.82;2.47;;;7.30;99.90;;;;;;5029984;28;20498;-79
2022/09/28 00:21:16;;;;;;;4.32;1.83;;;6.80;99.90;;;;;;5029332;28;20073;-79
2022/09/28 00:26:31;;;;;;;4.00;1.77;;;6.60;99.90;;;;;;5031918;28;20486;-78
2022/09/28 00:28:59;;;;;;;5.82;2.15;;;6.60;99.90;;;;;;5029558;28;20147;-79
2022/09/28 00:31:28;;;;;;;3.42;1.80;;;6.60;99.90;;;;;;5045701;28;20045;-79
2022/09/28 00:33:56;;;;;;;3.22;1.88;;;6.60;99.90;;;;;;5001646;28;20744;-79
2022/09/28 00:36:25;;;;;;;6.50;1.98;;;6.50;99.90;;;;;;5049311;28;20131;-79
2022/09/28 00:38:55;;;;;;;3.72;2.00;;;6.40;99.90;;;;;;5033029;28;20176;-79
2022/09/28 00:41:26;;;;;;;3.45;1.70;;;6.40;99.90;;;;;;5049336;28;20079;-79
2022/09/28 00:44:13;;;;;;;3.78;1.90;;;6.30;99.90;;;;;;5053428;28;20033;-79
2022/09/28 00:46:40;;;;;;;4.68;2.00;;;7.30;99.90;;;;;;5069654;28;20048;-78
2022/09/28 00:49:13;;;;;;;4.65;2.08;;;6.30;99.90;;;;;;5020960;28;20034;-79
2022/09/28 00:51:42;;;;;;;5.90;2.30;;;7.20;99.90;;;;;;5069826;28;20120;-79
2022/09/28 00:54:11;;;;;;;4.97;1.85;;;6.20;99.90;;;;;;5036440;28;20150;-79
2022/09/28 00:56:41;;;;;;;3.97;1.73;;;6.20;99.90;;;;;;5052916;28;20045;-79
2022/09/28 00:59:08;;;;;;;5.03;2.00;;;6.20;99.90;;;;;;5052939;28;20486;-79
2022/09/28 01:01:36;;;;;;;4.15;2.05;;;6.10;99.90;;;;;;5052919;28;20034;-79
2022/09/28 01:04:04;;;;;;;4.78;2.10;;;6.10;99.90;;;;;;5053040;28;20041;-79
2022/09/28 01:06:34;;;;;;;5.70;2.53;;;6.10;99.90;;;;;;5036854;28;20041;-78
2022/09/28 01:09:06;;;;;;;4.30;2.03;;;6.40;99.90;;;;;;5053027;28;20520;-78
2022/09/28 01:11:36;;;;;;;4.47;2.13;;;6.10;99.90;;;;;;5052951;28;20056;-79
2022/09/28 01:14:07;;;;;;;8.57;2.50;;;6.00;99.90;;;;;;5052744;28;20068;-78
2022/09/28 01:16:50;;;;;;;5.03;2.30;;;6.30;99.90;;;;;;5052520;28;20045;-78
2022/09/28 01:19:32;;;;;;;4.75;2.10;;;6.00;99.90;;;;;;5052250;28;20041;-79
2022/09/28 01:22:08;;;;;;;4.07;2.05;;;5.90;99.90;;;;;;5052787;28;20069;-78
2022/09/28 01:24:38;;;;;;;;;;;5.90;99.90;;;;;;5052847;28;20044;-79
2022/09/28 01:27:34;;;;;;;8.63;1.98;;;5.90;99.90;;;;;;5052589;28;19917;-78
2022/09/28 01:30:29;;;;;;;5.97;2.05;;;5.90;99.90;;;;;;5067237;28;20531;-78
2022/09/28 01:32:59;;;;;;;5.43;2.10;;;5.90;99.90;;;;;;5065982;28;20088;-79
2022/09/28 01:35:46;;;;;;;6.78;2.40;;;5.90;99.90;;;;;;5052182;28;20083;-79
2022/09/28 01:38:21;;;;;;;7.13;2.42;;;5.90;99.90;;;;;;5052221;28;20046;-79
2022/09/28 01:40:49;;;;;;;4.90;2.22;;;5.80;99.90;;;;;;5052575;28;20112;-78
2022/09/28 01:43:21;;;;;;;6.07;2.47;;;5.90;99.90;;;;;;5051771;28;20569;-79
2022/09/28 01:46:14;;;;;;;5.18;2.22;;;5.80;99.90;;;;;;5052467;28;20103;-79
2022/09/28 01:48:53;;;;;;;6.03;2.65;;;5.80;99.90;;;;;;5057792;28;20488;-79
2022/09/28 01:51:46;;;;;;;4.90;2.38;;;5.70;99.90;;;;;;5052132;28;20038;-79
2022/09/28 01:54:20;;;;;;;4.78;2.30;;;5.70;99.90;;;;;;5051835;28;20033;-79
2022/09/28 01:57:09;;;;;;;4.35;2.17;;;5.80;99.90;;;;;;5052166;28;20042;-79
2022/09/28 01:59:43;;;;;;;4.53;2.45;;;5.60;99.90;;;;;;5067746;28;20132;-79
2022/09/28 02:02:20;;;;;;;4.70;2.70;;;5.60;99.90;;;;;;5052187;28;20037;-78
2022/09/28 02:04:49;;;;;;;5.03;2.60;;;5.80;99.90;;;;;;5052219;28;20084;-78
2022/09/28 02:07:22;;;;;;;6.03;2.75;;;5.60;99.90;;;;;;5052040;28;20037;-78
2022/09/28 02:10:08;;;;;;;5.95;2.35;;;5.50;99.90;;;;;;5068336;28;20103;-79
2022/09/28 02:12:58;;;;;;;5.72;2.75;;;5.80;99.90;;;;;;5051778;28;20056;-78
2022/09/28 02:15:33;;;;;;;4.93;2.45;;;5.40;99.90;;;;;;5051419;28;20604;-79
2022/09/28 02:18:00;;;;;;;4.57;2.03;;;5.50;99.90;;;;;;5051478;28;20045;-79
2022/09/28 02:20:30;;;;;;;4.80;2.55;;;5.50;99.90;;;;;;5035083;28;20533;-79
2022/09/28 02:23:00;;;;;;;10.65;2.53;;;5.40;99.90;;;;;;5051502;28;20068;-79
2022/09/28 02:25:43;;;;;;;5.88;2.72;;;5.40;99.90;;;;;;5051455;28;20041;-79
2022/09/28 02:28:12;;;;;;;4.60;2.53;;;5.30;99.90;;;;;;5051402;28;20041;-79
2022/09/28 02:30:41;;;;;;;7.88;2.50;;;5.30;99.90;;;;;;5067410;28;20049;-79
2022/09/28 02:33:34;;;;;;;5.25;2.40;;;5.30;99.90;;;;;;5035233;28;20045;-79
2022/09/28 02:36:02;;;;;;;9.73;2.80;;;5.20;99.90;;;;;;5068170;28;20037;-79
2022/09/28 02:38:30;;;;;;;6.47;2.35;;;5.20;99.90;;;;;;5067168;28;20127;-79
2022/09/28 02:41:04;;;;;;;5.20;2.60;;;5.20;99.90;;;;;;5050846;28;20037;-79
2022/09/28 02:44:02;;;;;;;6.97;2.90;;;5.40;99.90;;;;;;5050818;28;20498;-79
2022/09/28 02:46:44;;;;;;;5.38;2.28;;;5.20;99.90;;;;;;5067248;28;20052;-78
2022/09/28 02:49:21;;;;;;;4.78;2.42;;;5.20;99.90;;;;;;5051344;28;20083;-78
2022/09/28 02:52:09;;;;;;;4.68;2.28;;;5.20;99.90;;;;;;5067150;28;20041;-79
2022/09/28 02:54:58;;;;;;;4.50;2.30;;;5.20;99.90;;;;;;5050520;28;20094;-79
2022/09/28 02:57:42;;;;;;;4.38;2.42;;;5.30;99.90;;;;;;5050669;28;20172;-80
2022/09/28 03:00:19;;;;;;;6.55;2.85;;;5.40;99.90;;;;;;5067566;28;20116;-79
2022/09/28 03:02:49;;;;;;;5.05;2.63;;;5.40;99.90;;;;;;5067236;28;20041;-79
2022/09/28 03:05:25;;;;;;;5.85;2.30;;;5.50;99.90;;;;;;5050412;28;20884;-79
2022/09/28 03:08:10;;;;;;;8.27;2.92;;;5.60;99.90;;;;;;5050737;28;20099;-79
2022/09/28 03:10:53;;;;;;;7.95;3.10;;;5.60;99.90;;;;;;5050650;28;20045;-79
2022/09/28 03:13:20;;;;;;;6.18;3.30;;;5.70;99.90;;;;;;5050406;28;20053;-79
2022/09/28 03:15:46;;;;;;;7.45;3.28;;;5.70;99.90;;;;;;5017946;28;21229;-79
2022/09/28 03:18:13;;;;;;;7.63;3.08;;;6.50;99.90;;;;;;5034190;28;20037;-78
2022/09/28 03:20:40;;;;;;;9.25;3.05;;;5.90;99.90;;;;;;5034039;28;20061;-78
2022/09/28 03:23:06;;;;;;;8.50;3.88;;;5.90;99.90;;;;;;5014707;28;20111;-79
2022/09/28 03:25:33;;;;;;;9.13;4.03;;;6.00;99.90;;;;;;5013970;28;20088;-79
2022/09/28 03:28:00;;;;;;;14.82;3.75;;;6.30;99.90;;;;;;5026919;28;20041;-78
2022/09/28 03:30:27;;;;;;;11.52;4.07;;;6.10;99.90;;;;;;5033838;28;20056;-79
2022/09/28 03:33:01;;;;;;;7.88;3.88;;;6.20;99.90;;;;;;5017500;28;20084;-78
2022/09/28 03:35:27;;;;;;;7.35;3.80;;;6.30;99.90;;;;;;5014538;28;20056;-79
2022/09/28 03:37:55;;;;;;;9.63;3.72;;;6.30;99.90;;;;;;4997731;28;20037;-79
2022/09/28 03:40:22;;;;;;;7.38;3.60;;;6.30;99.90;;;;;;5047470;28;20770;-78
2022/09/28 03:42:49;;;;;;;9.27;3.97;;;6.30;99.90;;;;;;5017321;28;20041;-78
2022/09/28 03:45:16;;;;;;;11.93;4.00;;;6.40;99.90;;;;;;5049899;28;20045;-79
2022/09/28 03:47:46;;;;;;;7.43;3.67;;;7.00;99.90;;;;;;5049389;28;20037;-79
2022/09/28 03:50:13;;;;;;;13.90;3.60;;;6.40;99.90;;;;;;5049913;28;20045;-79
2022/09/28 03:52:40;;;;;;;10.30;3.65;;;6.40;99.90;;;;;;5014037;28;20410;-79
2022/09/28 03:55:07;;;;;;;7.30;3.40;;;6.90;99.90;;;;;;5013921;28;20054;-79
2022/09/28 03:57:34;;;;;;;11.32;3.65;;;6.40;99.90;;;;;;5045868;28;20127;-80
2022/09/28 04:00:01;;;;;;;9.98;4.00;;;6.40;99.90;;;;;;5003061;28;20466;-78
2022/09/28 04:02:29;;;;;;;6.07;3.45;;;6.50;99.90;;;;;;5033802;28;20038;-79
2022/09/28 04:04:55;;;;;;;8.23;3.63;;;6.50;99.90;;;;;;5033384;28;20041;-79
2022/09/28 04:07:22;;;;;;;13.65;3.45;;;6.50;99.90;;;;;;5049666;28;20049;-78
2022/09/28 04:09:49;;;;;;;10.20;3.97;;;6.60;99.90;;;;;;5033399;28;20460;-78
2022/09/28 04:12:15;;;;;;;10.35;3.60;;;6.50;99.90;;;;;;5017080;28;20124;-78
2022/09/28 04:14:42;;;;;;;7.45;3.75;;;6.40;99.90;;;;;;5016605;28;20053;-79
2022/09/28 04:17:09;;;;;;;18.65;3.42;;;6.40;99.90;;;;;;5032118;28;20041;-79
2022/09/28 04:19:35;;;;;;;13.07;4.28;;;6.80;99.90;;;;;;5033453;28;20502;-78
2022/09/28 04:22:03;;;;;;;11.70;3.78;;;6.40;99.90;;;;;;5049398;28;20132;-78
2022/09/28 04:24:30;;;;;;;7.88;3.88;;;6.40;99.90;;;;;;5033447;28;20133;-79
2022/09/28 04:29:14;;;;;;;6.68;3.30;;;6.40;99.90;;;;;;5049438;28;20359;-79
2022/09/28 04:29:43;;;;;;;7.10;3.78;;;7.30;99.90;;;;;;5065521;28;20429;-79
2022/09/28 04:32:10;;;;;;;10.82;3.50;;;6.90;99.90;;;;;;5033183;28;20044;-79
2022/09/28 04:34:37;;;;;;;8.32;3.95;;;6.40;99.90;;;;;;5049220;28;20052;-78
2022/09/28 04:37:04;;;;;;;7.45;3.42;;;6.30;99.90;;;;;;5032469;28;20045;-79
2022/09/28 04:39:31;;;;;;;16.05;3.90;;;6.30;99.90;;;;;;5016697;28;20038;-78
2022/09/28 04:41:57;;;;;;;13.63;3.67;;;6.80;99.90;;;;;;5044756;28;20034;-79
2022/09/28 04:44:24;;;;;;;9.02;4.00;;;6.70;99.90;;;;;;5019142;28;20037;-78
2022/09/28 04:46:51;;;;;;;13.93;3.72;;;6.30;99.90;;;;;;5032922;28;20037;-78
2022/09/28 04:49:17;;;;;;;6.90;3.38;;;6.20;99.90;;;;;;5016713;28;20116;-78
2022/09/28 04:51:44;;;;;;;8.95;3.17;;;6.20;99.90;;;;;;5011386;28;20072;-79
2022/09/28 04:54:11;;;;;;;12.25;3.75;;;6.20;99.90;;;;;;5031168;28;20095;-78
2022/09/28 04:56:37;;;;;;;7.82;3.38;;;6.40;99.90;;;;;;5016532;28;20502;-79
2022/09/28 04:59:04;;;;;;;6.40;3.20;;;6.60;99.90;;;;;;5048863;28;20048;-78
2022/09/28 05:01:31;;;;;;;7.78;3.58;;;6.10;99.90;;;;;;5032983;28;20037;-78
2022/09/28 05:03:58;;;;;;;5.70;3.15;;;6.20;99.90;;;;;;5023101;28;20045;-78
2022/09/28 05:06:27;;;;;;;5.70;2.92;;;6.10;99.90;;;;;;5029227;28;20048;-78
2022/09/28 05:08:56;;;;;;;8.02;3.55;;;6.00;99.90;;;;;;5013131;28;20046;-79
2022/09/28 05:11:23;;;;;;;7.70;2.67;;;6.90;99.90;;;;;;5015505;28;20497;-79
2022/09/28 05:13:49;;;;;;;5.90;3.10;;;6.00;99.90;;;;;;5002026;28;20061;-79
2022/09/28 05:16:16;;;;;;;5.97;2.85;;;6.00;99.90;;;;;;5044977;28;20073;-79
2022/09/28 05:18:43;;;;;;;6.60;3.17;;;6.00;99.90;;;;;;5028329;28;20100;-79
2022/09/28 05:21:11;;;;;;;8.38;3.28;;;6.50;99.90;;;;;;4995927;28;20080;-79
2022/09/28 05:23:39;;;;;;;6.65;3.22;;;5.90;99.90;;;;;;5012589;28;20077;-79
2022/09/28 05:26:07;;;;;;;6.35;2.70;;;6.00;99.90;;;;;;5028268;28;20042;-79
2022/09/28 05:28:33;;;;;;;5.03;2.47;;;5.80;99.90;;;;;;5014489;28;20041;-79
2022/09/28 05:31:04;;;;;;;7.57;3.03;;;5.80;99.90;;;;;;4999846;28;20041;-79
2022/09/28 05:33:31;;;;;;;6.20;2.70;;;5.80;99.90;;;;;;5037525;28;20441;-79
2022/09/28 05:35:58;;;;;;;5.45;2.72;;;5.80;99.90;;;;;;5031980;28;20046;-79
2022/09/28 05:38:25;;;;;;;5.30;2.97;;;6.30;99.90;;;;;;5016335;28;20041;-78
2022/09/28 05:40:52;;;;;;;6.10;3.00;;;5.70;99.90;;;;;;5032079;28;20042;-79
2022/09/28 05:43:18;;;;;;;5.00;2.72;;;5.70;99.90;;;;;;5048727;28;20042;-79
2022/09/28 05:45:45;;;;;;;7.00;2.72;;;5.70;99.90;;;;;;5032404;28;20044;-79
2022/09/28 05:48:12;;;;;;;5.43;2.63;;;5.70;99.90;;;;;;5016062;28;20045;-78
2022/09/28 05:50:39;;;;;;;6.45;3.03;;;6.10;99.90;;;;;;5000422;28;20073;-78
2022/09/28 05:53:07;;;;;;;10.07;2.80;;;5.60;99.90;;;;;;5048666;28;20156;-79
2022/09/28 05:55:35;;;;;;;5.95;2.70;;;5.60;99.90;;;;;;5032097;28;20045;-79
2022/09/28 05:58:05;;;;;;;7.57;2.97;;;6.00;99.90;;;;;;4999839;28;20073;-79
2022/09/28 06:00:32;;;;;;;5.72;2.83;;;5.60;99.90;;;;;;5032199;28;20042;-79
2022/09/28 06:03:02;;;;;;;5.13;2.72;;;5.60;99.90;;;;;;5032284;28;20038;-78
2022/09/28 06:05:30;;;;;;;4.63;2.40;;;5.50;99.90;;;;;;5032188;28;20038;-78
2022/09/28 06:07:58;;;;;;;7.60;2.45;;;5.50;99.90;;;;;;5031667;28;20537;-79
2022/09/28 06:10:26;;;;;;;5.55;2.28;;;5.90;99.90;;;;;;5031963;28;20453;-79
2022/09/28 06:12:54;;;;;;;3.97;2.30;;;5.50;99.90;;;;;;5033629;28;20041;-80
2022/09/28 06:15:23;;;;;;;4.30;2.20;;;5.50;99.90;;;;;;5013453;28;20041;-79
2022/09/28 06:18:05;;;;;;;6.25;2.08;;;5.50;99.90;;;;;;5048335;28;20037;-79
2022/09/28 06:20:34;;;;;;;3.95;2.13;;;5.40;99.90;;;;;;5044219;28;20095;-79
2022/09/28 06:23:01;;;;;;;4.88;2.55;;;6.00;99.90;;;;;;5035491;28;20037;-79
2022/09/28 06:25:28;;;;;;;7.10;2.45;;;5.40;99.90;;;;;;5028676;28;20158;-79
2022/09/28 06:28:21;;;;;;;4.72;2.28;;;5.30;99.90;;;;;;5047858;28;20484;-79
2022/09/28 06:30:48;;;;;;;4.63;2.35;;;5.30;99.90;;;;;;5033745;28;20059;-79
2022/09/28 06:33:15;;;;;;;4.75;2.42;;;5.40;99.90;;;;;;5027739;28;20472;-79
2022/09/28 06:35:41;;;;;;;5.00;2.10;;;5.40;99.90;;;;;;5022188;28;20111;-79
2022/09/28 06:38:09;;;;;;;4.47;2.08;;;6.00;99.90;;;;;;5026256;28;20042;-79
2022/09/28 06:40:36;;;;;;;7.03;2.45;;;5.30;99.90;;;;;;5050174;28;20478;-79
2022/09/28 06:43:08;;;;;;;5.35;2.40;;;5.70;99.90;;;;;;5065826;28;20033;-79
2022/09/28 06:45:37;;;;;;;3.95;2.25;;;5.60;99.90;;;;;;5051020;28;20037;-79
2022/09/28 06:48:04;;;;;;;4.78;2.42;;;5.30;99.90;;;;;;5036822;28;20045;-79
2022/09/28 06:50:36;;;;;;;4.65;2.17;;;5.30;99.90;;;;;;5053352;28;20497;-79
2022/09/28 06:53:05;;;;;;;6.28;2.60;;;5.20;99.90;;;;;;5034430;28;20390;-79
2022/09/28 06:55:32;;;;;;;8.00;3.03;;;5.20;99.90;;;;;;5050600;28;20417;-79
2022/09/28 06:58:04;;;;;;;6.43;3.25;;;5.20;99.90;;;;;;5002377;28;20038;-79
2022/09/28 07:00:33;;;;;;;5.60;3.10;;;5.20;99.90;;;;;;5052226;28;20409;-79
2022/09/28 07:03:09;;;;;;;4.90;2.58;;;5.20;99.90;;;;;;5054272;28;20044;-79
2022/09/28 07:05:40;;;;;;;5.45;2.63;;;5.20;99.90;;;;;;5070548;28;20040;-78
2022/09/28 07:08:07;;;;;;;6.30;2.50;;;5.20;99.90;;;;;;5053774;28;20049;-78
2022/09/28 07:10:34;;;;;;;5.93;2.70;;;5.10;99.90;;;;;;5046162;28;20042;-79
2022/09/28 07:13:03;;;;;;;13.82;2.85;;;5.80;99.90;;;;;;5026552;28;20037;-79
2022/09/28 07:15:31;;;;;;;6.65;2.60;;;5.20;99.90;;;;;;5015555;28;20061;-79
2022/09/28 07:18:02;;;;;;;16.00;3.08;;;5.20;99.90;;;;;;5002837;28;20092;-79
2022/09/28 07:20:30;;;;;;;4.88;2.30;;;5.20;99.90;;;;;;4986466;28;20038;-79
2022/09/28 07:22:58;;;;;;;8.45;2.50;;;5.30;99.90;;;;;;5014297;28;20034;-79
2022/09/28 07:25:28;;;;;;;15.38;2.97;;;5.60;99.90;;;;;;5030010;28;20077;-79
2022/09/28 07:27:56;;;;;;;6.53;2.75;;;5.60;99.90;;;;;;5027597;28;20877;-79
2022/09/28 07:30:25;;;;;;;24.15;2.80;;;5.40;99.90;;;;;;5029156;28;20042;-79
2022/09/28 07:32:53;;;;;;;5.47;2.75;;;5.50;99.90;;;;;;4979160;28;20085;-79
2022/09/28 07:35:21;;;;;;;10.10;2.67;;;5.50;99.90;;;;;;5010330;28;20050;-81
2022/09/28 07:37:47;;;;;;;11.77;3.13;;;5.60;99.90;;;;;;5010866;28;20522;-82
2022/09/28 07:43:04;;;;;;;10.10;3.33;;;5.50;99.90;;;;;;5013245;28;20052;-81
2022/09/28 07:45:35;;;;;;;8.70;3.22;;;5.60;99.90;;;;;;5029113;28;20490;-80
2022/09/28 07:48:02;;;;;;;8.50;3.38;;;5.60;99.90;;;;;;5002577;28;20034;-80
2022/09/28 07:50:29;;;;;;;6.72;3.38;;;5.60;99.90;;;;;;5012965;28;20148;-80
2022/09/28 07:52:56;;;;;;;10.80;3.58;;;5.60;99.90;;;;;;5026209;28;20097;-80
2022/09/28 07:55:23;;;;;;;7.43;3.50;;;5.60;99.90;;;;;;5001347;28;20498;-80
2022/09/28 07:58:00;;;;;;;7.32;3.03;;;5.70;99.90;;;;;;5013657;28;20286;-79
2022/09/28 08:00:28;;;;;;;6.60;3.17;;;6.20;99.90;;;;;;5014621;28;20036;-80
2022/09/28 08:02:58;;;;;;;6.50;3.22;;;5.70;99.90;;;;;;5013638;28;20413;-80
2022/09/28 08:05:30;;;;;;;5.40;2.88;;;5.70;99.90;;;;;;5029461;28;20060;-80
2022/09/28 08:07:59;;;;;;;6.30;3.20;;;5.90;99.90;;;;;;5014155;28;20498;-80
2022/09/28 08:10:26;;;;;;;7.63;4.03;;;6.00;99.90;;;;;;4997205;28;20049;-80
2022/09/28 08:12:57;;;;;;;8.48;3.38;;;7.30;99.90;;;;;;5013585;28;20038;-80
2022/09/28 08:15:24;;;;;;;7.65;3.65;;;6.20;99.90;;;;;;5044595;28;20096;-80
2022/09/28 08:17:51;;;;;;;9.65;3.75;;;6.30;99.90;;;;;;5016744;28;20084;-80
2022/09/28 08:23:08;;;;;;;12.87;4.83;;;6.50;99.90;;;;;;5052169;28;20044;-80
2022/09/28 08:25:37;;;;;;;11.50;5.35;;;6.60;99.90;;;;;;5048898;28;20482;-80
2022/09/28 08:28:06;;;;;;;11.90;4.90;;;6.80;99.90;;;;;;5033108;28;20486;-80
2022/09/28 08:30:32;;;;;;;11.35;5.18;;;6.90;99.90;;;;;;5048685;28;20045;-80
2022/09/28 08:32:59;;;;;;;11.15;4.70;;;7.10;99.90;;;;;;5048986;28;20052;-80
2022/09/28 08:35:26;;;;;;;8.60;4.30;;;7.20;99.90;;;;;;5016310;28;20413;-80
2022/09/28 08:37:53;;;;;;;8.18;4.20;;;7.20;99.90;;;;;;5032875;28;20540;-80
2022/09/28 08:40:23;;;;;;;13.55;4.68;;;7.30;99.90;;;;;;5032467;28;20500;-80
2022/09/28 08:43:04;;;;;;;13.32;4.47;;;7.40;99.90;;;;;;5049080;28;20489;-80
2022/09/28 08:45:35;;;;;;;8.77;4.32;;;7.60;99.90;;;;;;5048877;28;20041;-80
2022/09/28 08:51:05;;;;;;;7.68;4.07;;;7.80;99.90;;;;;;5065447;28;20053;-80
2022/09/28 08:53:44;;;;;;;9.82;5.18;;;7.90;99.90;;;;;;5065083;28;20053;-80
2022/09/28 08:56:17;;;;;;;10.18;4.65;;;7.90;99.90;;;;;;5049332;28;20038;-80
2022/09/28 08:58:51;;;;;;;7.82;4.25;;;8.00;99.90;;;;;;5048985;28;20060;-80
2022/09/28 09:01:19;;;;;;;14.57;5.03;;;8.10;99.90;;;;;;5048786;28;20041;-81
2022/09/28 09:03:47;;;;;;;14.15;4.20;;;8.20;99.90;;;;;;5035738;28;20036;-80
2022/09/28 09:06:58;;;;;;;9.02;4.72;;;8.30;99.90;;;;;;5033195;28;20517;-80
2022/09/28 09:09:42;;;;;;;7.80;4.03;;;8.40;99.90;;;;;;5014057;28;20064;-80
2022/09/28 09:12:24;;;;;;;11.00;4.97;;;8.40;99.90;;;;;;5049590;28;20120;-80
2022/09/28 09:15:18;;;;;;;9.48;4.53;;;8.40;99.90;;;;;;5032884;28;20053;-80
2022/09/28 09:18:10;;;;;;;11.27;5.10;;;8.50;99.90;;;;;;5040633;28;20585;-80
2022/09/28 09:20:57;;;;;;;12.23;4.28;;;8.60;99.90;;;;;;5048573;28;20088;-80
2022/09/28 09:23:35;;;;;;;7.85;3.88;;;8.70;99.90;;;;;;5032336;28;20046;-80
2022/09/28 09:26:16;;;;;;;8.48;3.72;;;8.80;99.90;;;;;;5048972;28;20073;-80
2022/09/28 09:29:12;;;;;;;6.90;3.58;;;9.00;99.90;;;;;;5032165;28;20042;-80
2022/09/28 09:32:06;;;;;;;10.20;4.80;;;9.10;99.90;;;;;;5032344;28;20052;-80
2022/09/28 09:35:19;;;;;;;8.32;3.78;;;9.20;99.90;;;;;;5051590;28;20756;-80
2022/09/28 09:38:36;;;;;;;7.28;3.63;;;9.20;99.90;;;;;;5051870;28;20041;-80
2022/09/28 09:41:38;;;;;;;6.72;3.40;;;9.20;99.90;;;;;;4992229;28;20575;-80
2022/09/28 09:44:21;;;;;;;5.32;2.90;;;9.20;99.90;;;;;;4919325;29;20227;-80
2022/09/28 09:46:57;;;;;;;6.22;2.80;;;9.30;99.90;;;;;;5056881;28;20046;-80
2022/09/28 09:49:27;;;;;;;;;;;9.30;99.90;;;;;;5068940;28;20041;-80
2022/09/28 09:52:03;;;;;;;5.32;2.78;;;9.40;99.90;;;;;;5051875;28;19928;-80
2022/09/28 09:54:42;;;;;;;6.43;3.15;;;9.50;99.90;;;;;;5051667;28;20482;-80
2022/09/28 09:57:22;;;;;;;6.35;3.00;;;9.50;99.90;;;;;;5052247;28;20124;-80
2022/09/28 09:59:49;;;;;;;5.35;3.00;;;9.50;99.90;;;;;;5051578;28;20037;-80
2022/09/28 10:02:27;;;;;;;5.82;2.92;;;9.50;99.90;;;;;;5014889;28;20116;-80
2022/09/28 10:05:05;;;;;;;7.35;2.60;;;9.50;99.90;;;;;;5031999;28;20072;-80
2022/09/28 10:07:51;;;;;;;5.82;3.13;;;9.60;99.90;;;;;;5048004;28;20398;-80
2022/09/28 10:10:40;;;;;;;5.55;2.40;;;9.60;99.90;;;;;;5034970;28;20079;-80
2022/09/28 10:13:08;;;;;;;5.45;2.88;;;9.70;99.90;;;;;;5046984;28;20136;-80
2022/09/28 10:15:35;;;;;;;4.95;2.53;;;9.70;99.90;;;;;;5049860;28;20059;-80
2022/09/28 10:18:10;;;;;;;4.88;2.58;;;9.80;99.90;;;;;;5021156;28;20054;-80
2022/09/28 10:20:39;;;;;;;5.70;2.13;;;9.90;99.90;;;;;;5053645;28;20045;-80
2022/09/28 10:23:30;;;;;;;7.25;2.60;;;9.90;99.90;;;;;;5065159;28;20033;-80
2022/09/28 10:26:02;;;;;;;4.85;2.33;;;9.90;99.90;;;;;;5058856;28;20547;-80
2022/09/28 10:29:03;;;;;;;4.75;2.17;;;9.90;99.90;;;;;;5047777;28;20046;-80
2022/09/28 10:31:50;;;;;;;4.15;2.30;;;10.10;99.90;;;;;;5060906;28;20490;-80
2022/09/28 10:34:23;;;;;;;5.70;2.95;;;10.30;99.90;;;;;;5031416;28;20045;-80
2022/09/28 10:37:02;;;;;;;4.50;2.38;;;10.40;99.90;;;;;;5064518;28;20477;-79
2022/09/28 10:39:39;;;;;;;5.85;2.60;;;10.50;99.90;;;;;;5050997;28;20044;-80
2022/09/28 10:42:10;;;;;;;5.70;2.47;;;10.70;99.90;;;;;;5061718;28;20030;-80
2022/09/28 10:45:01;;;;;;;5.22;2.50;;;10.80;99.90;;;;;;5032845;28;20632;-80
2022/09/28 10:47:31;;;;;;;4.85;2.63;;;10.90;99.90;;;;;;5047991;28;20042;-80
2022/09/28 10:49:59;;;;;;;4.28;2.42;;;10.90;99.90;;;;;;5026749;28;20045;-80
2022/09/28 10:52:36;;;;;;;5.43;2.28;;;10.90;99.90;;;;;;5039136;28;20037;-80
2022/09/28 10:55:25;;;;;;;4.63;2.40;;;11.00;99.90;;;;;;5031177;28;20049;-80
2022/09/28 10:57:52;;;;;;;6.50;2.95;;;11.20;99.90;;;;;;5030877;28;20133;-80
2022/09/28 11:00:39;;;;;;;4.40;2.40;;;11.40;99.90;;;;;;5014854;28;20533;-80
2022/09/28 11:03:16;;;;;;;4.00;2.10;;;11.60;99.90;;;;;;5043485;28;20033;-80
2022/09/28 11:06:03;;;;;;;4.20;1.98;;;11.80;99.90;;;;;;5041862;28;20484;-80
2022/09/28 11:08:34;;;;;;;4.60;2.10;;;11.80;99.90;;;;;;5046569;28;20077;-80
2022/09/28 11:11:13;;;;;;;4.65;2.42;;;11.60;99.90;;;;;;5054875;28;20509;-81
2022/09/28 11:13:48;;;;;;;4.65;2.08;;;11.70;99.90;;;;;;5063130;28;20038;-80
2022/09/28 11:16:23;;;;;;;;;;;11.60;99.90;;;;;;5035215;28;20046;-80
2022/09/28 11:18:50;;;;;;;7.10;1.52;;;11.30;99.90;;;;;;5033331;28;20400;-80
2022/09/28 11:21:31;;;;;;;2.78;1.40;;;11.30;99.90;;;;;;5017629;28;20132;-80
2022/09/28 11:24:06;;;;;;;3.30;1.70;;;11.40;99.90;;;;;;5070264;28;20095;-80
2022/09/28 11:26:41;;;;;;;3.60;1.70;;;11.50;99.90;;;;;;5032832;28;20573;-80
2022/09/28 11:29:37;;;;;;;4.45;1.73;;;11.70;99.90;;;;;;5069071;28;20045;-80
2022/09/28 11:32:05;;;;;;;3.38;1.63;;;11.80;99.90;;;;;;5053244;28;20424;-80
2022/09/28 11:34:51;;;;;;;3.80;1.30;;;11.70;99.90;;;;;;5037218;28;20045;-81
2022/09/28 11:37:37;;;;;;;4.03;1.63;;;11.90;99.90;;;;;;5018924;28;22383;-80
2022/09/28 11:40:13;;;;;;;3.53;1.50;;;12.10;99.90;;;;;;5033349;28;20069;-79
2022/09/28 11:43:06;;;;;;;2.88;1.50;;;12.30;99.90;;;;;;5035400;28;20042;-79
2022/09/28 11:45:53;;;;;;;4.15;1.40;;;12.40;99.90;;;;;;5046520;28;20041;-79
2022/09/28 11:48:30;;;;;;;3.90;1.40;;;12.50;99.90;;;;;;5052851;28;20084;-78
2022/09/28 11:51:05;;;;;;;2.47;1.02;;;12.50;99.90;;;;;;5048896;28;20124;-80
2022/09/28 11:53:40;;;;;;;1.98;1.00;;;12.60;99.90;;;;;;5062467;28;20048;-79
2022/09/28 11:56:34;;;;;;;3.38;0.90;;;12.60;99.90;;;;;;5050234;28;20093;-79
2022/09/28 11:59:27;;;;;;;1.48;0.77;;;12.60;99.90;;;;;;5069091;28;20471;-79
2022/09/28 12:01:57;;;;;;;1.30;0.75;;;12.30;99.90;;;;;;5021091;28;20144;-79
2022/09/28 12:04:40;;;;;;;2.25;0.77;;;12.20;99.90;;;;;;5043759;28;20031;-78
2022/09/28 12:07:31;;;;;;;1.92;0.93;;;12.10;99.90;;;;;;5032427;28;20052;-89
2022/09/28 12:10:26;;;;;;;2.88;0.90;;;12.00;99.90;;;;;;5036926;28;20033;-80
2022/09/28 12:13:09;;;;;;;1.55;0.70;;;11.90;99.90;;;;;;5051868;28;20072;-80
2022/09/28 12:15:58;;;;;;;2.28;0.60;;;11.70;99.90;;;;;;5065678;28;20128;-81
2022/09/28 12:18:49;;;;;;;4.43;1.00;;;11.60;99.90;;;;;;5048843;28;20103;-81
2022/09/28 12:21:59;;;;;;;3.40;0.80;;;11.60;99.90;;;;;;5032679;28;20108;-80
2022/09/28 12:24:39;;;;;;;5.40;1.08;;;11.70;99.90;;;;;;5032609;28;20122;-80
2022/09/28 12:27:08;;;;;;;1.00;0.60;;;11.80;99.90;;;;;;5032293;28;20128;-80
2022/09/28 12:29:46;;;;;;;1.73;0.77;;;11.90;99.90;;;;;;5032820;28;20206;-80
2022/09/28 12:32:34;;;;;;;1.92;0.88;;;12.10;99.90;;;;;;5032530;28;20034;-80
2022/09/28 12:35:02;;;;;;;1.38;0.68;;;12.20;99.90;;;;;;5031950;28;20136;-81
2022/09/28 12:37:53;;;;;;;3.20;0.68;;;12.30;99.90;;;;;;5031796;28;20088;-81
2022/09/28 12:40:57;;;;;;;2.03;0.80;;;12.40;99.90;;;;;;5032458;28;20037;-80
2022/09/28 12:43:53;;;;;;;1.10;0.65;;;12.60;99.90;;;;;;4989628;28;20506;-80
2022/09/28 12:46:52;;;;;;;2.40;1.10;;;12.60;99.90;;;;;;5032307;28;20041;-80
2022/09/28 12:49:37;;;;;;;1.45;0.80;;;12.60;99.90;;;;;;5033978;28;20512;-81
2022/09/28 12:52:27;;;;;;;4.32;1.10;;;12.70;99.90;;;;;;5048321;28;20498;-80
2022/09/28 12:55:17;;;;;;;2.33;1.00;;;12.80;99.90;;;;;;5047798;28;20508;-80
2022/09/28 12:57:53;;;;;;;1.25;0.70;;;12.90;99.90;;;;;;5052883;28;20048;-89
2022/09/28 13:00:22;;;;;;;2.88;0.85;;;13.00;99.90;;;;;;5069902;28;20045;-90
2022/09/28 13:03:19;;;;;;;0.77;0.50;;;13.00;99.90;;;;;;5050646;28;20037;-91
2022/09/28 13:06:13;;;;;;;1.65;0.75;;;13.10;99.90;;;;;;5060837;28;20099;-91
2022/09/28 13:08:57;;;;;;;3.00;0.85;;;13.10;99.90;;;;;;5054056;28;20455;-91
2022/09/28 13:11:42;;;;;;;1.63;0.90;;;13.10;99.90;;;;;;5053903;28;20077;-90
2022/09/28 13:14:27;;;;;;;1.40;0.60;;;13.10;99.90;;;;;;5045859;28;20063;-90
2022/09/28 13:17:09;;;;;;;1.15;0.70;;;13.10;99.90;;;;;;5034284;28;20053;-90
2022/09/28 13:20:02;;;;;;;1.70;0.70;;;13.10;99.90;;;;;;5048551;28;20048;-92
2022/09/28 13:22:43;;;;;;;1.45;0.60;;;13.10;99.90;;;;;;5048728;28;20464;-91
2022/09/28 13:25:15;;;;;;;1.13;0.63;;;13.00;99.90;;;;;;5033545;28;20556;-91
2022/09/28 13:27:51;;;;;;;1.05;0.50;;;12.90;99.90;;;;;;5034132;28;20132;-90
2022/09/28 13:30:18;;;;;;;1.30;0.70;;;12.80;99.90;;;;;;5036441;28;20053;-90
2022/09/28 13:32:46;;;;;;;1.10;0.50;;;12.80;99.90;;;;;;5021193;28;20041;-90
2022/09/28 13:35:20;;;;;;;2.28;0.50;;;12.70;99.90;;;;;;5031141;28;20131;-90
2022/09/28 13:38:16;;;;;;;0.60;0.40;;;12.70;99.90;;;;;;5029875;28;20045;-90
2022/09/28 13:41:05;;;;;;;1.70;0.63;;;12.70;99.90;;;;;;5076830;28;20037;-88
2022/09/28 13:43:59;;;;;;;1.23;0.55;;;12.80;99.90;;;;;;5089990;28;20048;-89
2022/09/28 13:46:38;;;;;;;0.63;0.40;;;12.80;99.90;;;;;;5055950;28;20075;-88